Time;durP1;ratioP1;P1;durP2;ratioP2;P2;SDS_P1;SDS_P2;PMS_P1;PMS_P2;Temp;Humidity;BMP_temperature;BMP_pressure;BME280_temperature;BME280_humidity;BME280_pressure;Samples;Min_cycle;Max_cycle;Signal;HPM_P1;HPM_P2
2022/11/11 00:01:41;;;;;;;15.58;10.13;;;;;;;;;;1688523;84;21531;-59
2022/11/11 00:04:27;;;;;;;18.10;10.63;;;;;;;;;;1701973;84;21864;-59
2022/11/11 00:07:11;;;;;;;17.80;10.55;;;;;;;;;;1694417;84;21107;-58
2022/11/11 00:09:57;;;;;;;16.15;9.50;;;;;;;;;;1754601;82;21111;-58
2022/11/11 00:12:42;;;;;;;15.65;10.18;;;;;;;;;;1726144;82;21103;-58
2022/11/11 00:15:27;;;;;;;14.50;8.73;;;;;;;;;;1705942;84;21123;-59
2022/11/11 00:27:22;;;;;;;;;;;;;;;;;;1738760;82;21537;-59
2022/11/11 00:30:08;;;;;;;16.45;8.55;;;;;;;;;;1713022;82;20434;-59
2022/11/11 00:32:54;;;;;;;16.05;9.18;;;;;;;;;;1706849;84;21085;-59
2022/11/11 00:35:54;;;;;;;14.90;8.83;;;;;;;;;;1737088;82;21042;-59
2022/11/11 00:38:46;;;;;;;14.50;8.50;;;;;;;;;;1736050;82;21063;-59
2022/11/11 00:41:30;;;;;;;15.48;9.48;;;;;;;;;;1733812;82;21128;-63
2022/11/11 00:44:15;;;;;;;16.23;9.68;;;;;;;;;;1720837;82;21060;-58
2022/11/11 00:53:09;;;;;;;16.35;9.25;;;;;;;;;;1700749;84;21064;-59
2022/11/11 00:55:55;;;;;;;16.52;9.83;;;;;;;;;;1700412;84;21095;-58
2022/11/11 00:58:40;;;;;;;13.43;8.93;;;;;;;;;;1702188;84;21065;-59
2022/11/11 01:01:25;;;;;;;17.07;10.43;;;;;;;;;;1688607;84;21092;-61
2022/11/11 01:04:10;;;;;;;14.70;9.93;;;;;;;;;;1706353;84;21065;-59
2022/11/11 01:06:55;;;;;;;16.45;10.55;;;;;;;;;;1705869;84;21095;-59
2022/11/11 01:09:40;;;;;;;16.10;10.78;;;;;;;;;;1721689;82;21025;-59
2022/11/11 01:12:24;;;;;;;14.93;10.23;;;;;;;;;;1677757;85;21100;-59
2022/11/11 01:15:10;;;;;;;18.57;10.72;;;;;;;;;;1689011;84;21023;-58
2022/11/11 01:17:56;;;;;;;15.98;9.65;;;;;;;;;;1671826;84;21150;-58
2022/11/11 01:20:41;;;;;;;15.48;9.33;;;;;;;;;;1710028;83;21056;-59
2022/11/11 01:23:26;;;;;;;18.07;9.35;;;;;;;;;;1702554;83;21614;-59
2022/11/11 01:26:18;;;;;;;13.53;8.90;;;;;;;;;;1702710;84;21104;-59
2022/11/11 01:29:03;;;;;;;14.60;8.78;;;;;;;;;;1710106;83;21038;-58
2022/11/11 01:31:47;;;;;;;13.85;8.13;;;;;;;;;;1714887;83;21025;-59
2022/11/11 01:34:33;;;;;;;13.93;8.73;;;;;;;;;;1703309;83;21072;-59
2022/11/11 01:37:18;;;;;;;13.68;8.40;;;;;;;;;;1719494;83;21060;-59
2022/11/11 01:40:03;;;;;;;13.32;8.40;;;;;;;;;;1718176;83;21091;-59
2022/11/11 01:42:49;;;;;;;12.28;8.43;;;;;;;;;;1719508;83;21053;-59
2022/11/11 01:45:45;;;;;;;11.97;7.28;;;;;;;;;;1718738;83;21093;-59
2022/11/11 01:51:40;;;;;;;12.68;7.58;;;;;;;;;;1713945;83;21100;-59
2022/11/11 01:54:39;;;;;;;12.68;7.12;;;;;;;;;;1689216;85;21587;-64
2022/11/11 01:57:28;;;;;;;9.48;5.95;;;;;;;;;;1697494;83;21049;-57
2022/11/11 02:00:15;;;;;;;10.72;7.17;;;;;;;;;;1718555;83;21048;-57
2022/11/11 02:05:45;;;;;;;11.33;6.95;;;;;;;;;;1654076;85;21086;-58
2022/11/11 02:08:32;;;;;;;10.23;6.42;;;;;;;;;;1631302;88;21052;-58
2022/11/11 02:14:34;;;;;;;10.48;6.80;;;;;;;;;;1676589;85;21007;-58
2022/11/11 02:17:07;;;;;;;10.30;6.20;;;;;;;;;;1658090;85;21028;-58
2022/11/11 02:19:53;;;;;;;8.95;5.70;;;;;;;;;;1658733;86;21060;-58
2022/11/11 02:22:43;;;;;;;11.85;6.50;;;;;;;;;;1658853;86;21009;-57
2022/11/11 02:25:28;;;;;;;9.28;5.50;;;;;;;;;;1659335;85;21059;-58
2022/11/11 02:28:13;;;;;;;8.63;5.67;;;;;;;;;;1658917;86;21059;-58
2022/11/11 02:30:57;;;;;;;8.73;5.50;;;;;;;;;;1658644;86;21067;-57
2022/11/11 02:33:42;;;;;;;11.33;5.92;;;;;;;;;;1658986;86;21017;-58
2022/11/11 02:36:27;;;;;;;9.28;6.33;;;;;;;;;;1659027;85;21024;-58
2022/11/11 02:39:11;;;;;;;8.90;5.55;;;;;;;;;;1659094;86;21090;-58
2022/11/11 02:41:56;;;;;;;7.35;5.12;;;;;;;;;;1658859;86;21510;-58
2022/11/11 02:44:41;;;;;;;8.98;5.35;;;;;;;;;;1659230;86;21015;-58
2022/11/11 02:47:26;;;;;;;8.68;5.42;;;;;;;;;;1659279;85;21072;-58
2022/11/11 02:50:10;;;;;;;8.50;5.58;;;;;;;;;;1659079;86;21029;-58
2022/11/11 02:52:54;;;;;;;8.40;5.75;;;;;;;;;;1659298;86;21024;-58
2022/11/11 02:55:39;;;;;;;9.33;5.80;;;;;;;;;;1658718;86;21026;-58
2022/11/11 02:58:23;;;;;;;8.58;5.40;;;;;;;;;;1659232;86;21078;-61
2022/11/11 03:01:08;;;;;;;8.50;5.22;;;;;;;;;;1658824;85;21030;-58
2022/11/11 03:03:52;;;;;;;8.33;5.20;;;;;;;;;;1663486;85;21077;-59
2022/11/11 03:06:38;;;;;;;7.30;5.03;;;;;;;;;;1680444;85;21026;-58
2022/11/11 03:09:22;;;;;;;7.30;4.92;;;;;;;;;;1681280;85;21477;-58
2022/11/11 03:12:09;;;;;;;9.05;5.58;;;;;;;;;;1673432;86;21298;-59
2022/11/11 03:14:54;;;;;;;8.98;5.20;;;;;;;;;;1645964;87;21096;-58
2022/11/11 03:17:38;;;;;;;9.53;5.58;;;;;;;;;;1678354;84;21004;-58
2022/11/11 03:23:16;;;;;;;9.00;5.17;;;;;;;;;;1664447;85;21023;-58
2022/11/11 03:26:00;;;;;;;8.20;5.25;;;;;;;;;;1673100;86;21059;-58
2022/11/11 03:28:45;;;;;;;9.28;5.10;;;;;;;;;;1671252;85;21090;-58
2022/11/11 03:31:30;;;;;;;7.75;4.90;;;;;;;;;;1680351;85;21510;-58
2022/11/11 03:34:17;;;;;;;9.98;5.37;;;;;;;;;;1681705;85;21035;-58
2022/11/11 03:40:06;;;;;;;9.65;5.78;;;;;;;;;;1673659;86;20982;-58
2022/11/11 03:42:51;;;;;;;8.78;5.85;;;;;;;;;;1673170;86;21059;-58
2022/11/11 03:45:35;;;;;;;10.32;5.50;;;;;;;;;;1663652;85;21016;-59
2022/11/11 03:48:20;;;;;;;9.95;6.25;;;;;;;;;;1646561;86;21036;-59
2022/11/11 03:51:05;;;;;;;8.35;5.30;;;;;;;;;;1673424;86;20989;-58
2022/11/11 03:53:49;;;;;;;9.45;6.03;;;;;;;;;;1673213;86;20990;-59
2022/11/11 03:56:34;;;;;;;9.40;6.10;;;;;;;;;;1673542;86;21510;-59
2022/11/11 03:59:19;;;;;;;8.95;5.80;;;;;;;;;;1670533;85;21031;-59
2022/11/11 04:11:18;;;;;;;10.20;6.22;;;;;;;;;;1628392;87;21035;-59
2022/11/11 04:17:07;;;;;;;12.00;7.22;;;;;;;;;;1623054;88;21057;-58
2022/11/11 04:22:54;;;;;;;10.10;6.78;;;;;;;;;;1618577;88;21100;-57
2022/11/11 04:25:48;;;;;;;11.80;6.80;;;;;;;;;;1628679;88;21076;-57
2022/11/11 04:32:34;;;;;;;10.68;6.75;;;;;;;;;;1628703;88;21521;-58
2022/11/11 04:34:23;;;;;;;11.97;7.47;;;;;;;;;;1628501;88;21037;-58
2022/11/11 04:37:07;;;;;;;13.32;7.12;;;;;;;;;;1628685;88;21571;-57
2022/11/11 04:42:54;;;;;;;11.93;7.37;;;;;;;;;;1629725;87;21072;-58
2022/11/11 04:45:38;;;;;;;13.40;7.65;;;;;;;;;;1646713;87;21060;-58
2022/11/11 04:48:23;;;;;;;12.20;7.37;;;;;;;;;;1632421;87;20994;-58
2022/11/11 04:51:07;;;;;;;12.23;7.45;;;;;;;;;;1628518;87;21036;-58
2022/11/11 04:53:52;;;;;;;11.08;7.12;;;;;;;;;;1628569;88;21507;-58
2022/11/11 04:56:52;;;;;;;11.97;7.40;;;;;;;;;;1628568;88;21056;-58
2022/11/11 04:59:38;;;;;;;13.35;7.53;;;;;;;;;;1602759;89;21055;-58
2022/11/11 05:05:26;;;;;;;13.20;8.03;;;;;;;;;;1619900;88;21088;-59
2022/11/11 05:11:13;;;;;;;15.63;7.92;;;;;;;;;;1670504;86;21540;-58
2022/11/11 05:23:02;;;;;;;13.20;8.13;;;;;;;;;;1670290;86;20437;-58
2022/11/11 05:25:46;;;;;;;14.87;8.40;;;;;;;;;;1678719;83;21005;-59
2022/11/11 05:28:31;;;;;;;11.93;7.53;;;;;;;;;;1670323;86;21027;-59
2022/11/11 05:31:15;;;;;;;12.73;7.83;;;;;;;;;;1677161;84;21017;-58
2022/11/11 05:33:59;;;;;;;14.53;7.70;;;;;;;;;;1691467;84;21052;-58
2022/11/11 05:36:44;;;;;;;14.45;8.03;;;;;;;;;;1686663;84;21507;-58
2022/11/11 05:39:28;;;;;;;12.40;7.42;;;;;;;;;;1690164;84;21468;-58
2022/11/11 05:42:13;;;;;;;12.43;7.95;;;;;;;;;;1695259;83;21029;-57
2022/11/11 05:44:57;;;;;;;17.32;7.60;;;;;;;;;;1698864;84;21535;-58
2022/11/11 05:47:41;;;;;;;12.73;6.28;;;;;;;;;;1698351;84;21028;-58
2022/11/11 05:50:26;;;;;;;14.47;7.45;;;;;;;;;;1700135;84;21013;-58
2022/11/11 05:53:10;;;;;;;13.75;7.42;;;;;;;;;;1698768;84;21031;-57
2022/11/11 05:55:56;;;;;;;12.58;6.97;;;;;;;;;;1699120;83;20990;-58
2022/11/11 05:58:41;;;;;;;14.78;7.05;;;;;;;;;;1700255;83;21006;-58
2022/11/11 06:01:25;;;;;;;16.10;8.63;;;;;;;;;;1697509;83;20998;-59
2022/11/11 06:04:10;;;;;;;13.20;7.47;;;;;;;;;;1682403;83;21070;-58
2022/11/11 06:06:54;;;;;;;14.75;8.60;;;;;;;;;;1698375;83;21029;-58
2022/11/11 06:09:38;;;;;;;16.45;9.13;;;;;;;;;;1703705;83;21489;-58
2022/11/11 06:28:39;;;;;;;29.10;16.35;;;;;;;;;;1809927;77;28034;-59
2022/11/11 06:31:25;;;;;;;16.60;10.13;;;;;;;;;;1755039;81;21008;-57
2022/11/11 06:34:10;;;;;;;17.05;9.70;;;;;;;;;;1761515;80;21514;-58
2022/11/11 06:36:54;;;;;;;18.52;9.55;;;;;;;;;;1759412;80;21508;-58
2022/11/11 06:39:39;;;;;;;17.55;10.10;;;;;;;;;;1758429;80;21483;-57
2022/11/11 06:42:24;;;;;;;17.32;9.33;;;;;;;;;;1764761;80;21524;-57
2022/11/11 06:45:09;;;;;;;17.07;9.70;;;;;;;;;;1769278;80;20965;-58
2022/11/11 06:47:54;;;;;;;15.85;9.30;;;;;;;;;;1763965;80;21033;-58
2022/11/11 06:50:40;;;;;;;15.75;8.73;;;;;;;;;;1763147;80;21095;-58
2022/11/11 06:53:24;;;;;;;19.67;10.30;;;;;;;;;;1762197;80;21019;-58
2022/11/11 06:56:11;;;;;;;19.27;10.35;;;;;;;;;;1760921;80;21060;-58
2022/11/11 06:58:56;;;;;;;17.87;9.43;;;;;;;;;;1766082;81;21005;-58
2022/11/11 07:01:41;;;;;;;19.48;10.10;;;;;;;;;;1764970;81;21028;-60
2022/11/11 07:04:27;;;;;;;18.57;10.35;;;;;;;;;;1764292;80;21052;-60
2022/11/11 07:07:13;;;;;;;18.67;9.95;;;;;;;;;;1761789;81;21516;-59
2022/11/11 07:09:58;;;;;;;17.12;9.68;;;;;;;;;;1765442;81;21647;-57
2022/11/11 07:12:43;;;;;;;22.07;11.20;;;;;;;;;;1756975;80;21532;-58
2022/11/11 07:15:27;;;;;;;20.90;11.05;;;;;;;;;;1765466;80;21048;-58
2022/11/11 07:18:14;;;;;;;17.35;9.75;;;;;;;;;;1753002;80;21500;-58
2022/11/11 07:21:00;;;;;;;16.65;9.20;;;;;;;;;;1750046;81;21035;-60
2022/11/11 07:23:47;;;;;;;19.65;9.78;;;;;;;;;;1757430;81;21052;-59
2022/11/11 07:26:32;;;;;;;18.50;9.53;;;;;;;;;;1766410;80;22125;-59
2022/11/11 07:29:16;;;;;;;21.10;10.38;;;;;;;;;;1768384;81;21097;-59
2022/11/11 07:32:01;;;;;;;17.92;9.70;;;;;;;;;;1741979;81;21031;-59
2022/11/11 07:34:46;;;;;;;19.87;10.68;;;;;;;;;;1732918;81;21570;-59
2022/11/11 07:37:32;;;;;;;18.75;11.25;;;;;;;;;;1772620;80;21016;-57
2022/11/11 07:40:17;;;;;;;18.85;9.78;;;;;;;;;;1768787;81;21562;-59
2022/11/11 07:43:02;;;;;;;22.58;11.28;;;;;;;;;;1764390;81;21526;-59
2022/11/11 07:45:47;;;;;;;17.12;9.60;;;;;;;;;;1754946;81;21094;-59
2022/11/11 07:48:31;;;;;;;20.23;10.43;;;;;;;;;;1742835;81;21094;-59
2022/11/11 07:51:16;;;;;;;22.22;9.53;;;;;;;;;;1749246;81;22140;-59
2022/11/11 07:54:01;;;;;;;22.22;11.05;;;;;;;;;;1753849;81;21581;-59
2022/11/11 07:56:45;;;;;;;18.25;9.20;;;;;;;;;;1757059;81;21035;-59
2022/11/11 07:59:30;;;;;;;22.80;10.50;;;;;;;;;;1755879;81;21011;-59
2022/11/11 08:02:14;;;;;;;23.02;11.20;;;;;;;;;;1754519;81;20979;-57
2022/11/11 08:04:59;;;;;;;19.42;10.18;;;;;;;;;;1768012;81;21074;-57
2022/11/11 08:07:44;;;;;;;19.55;10.03;;;;;;;;;;1759088;80;21006;-57
2022/11/11 08:10:28;;;;;;;16.85;9.53;;;;;;;;;;1766752;80;21019;-57
2022/11/11 08:16:16;;;;;;;19.00;9.60;;;;;;;;;;1748007;81;21612;-58
2022/11/11 08:19:01;;;;;;;21.40;9.78;;;;;;;;;;1754400;80;21038;-58
2022/11/11 08:21:45;;;;;;;20.17;11.03;;;;;;;;;;1749928;81;21074;-58
2022/11/11 08:24:29;;;;;;;17.82;10.18;;;;;;;;;;1756824;81;21054;-59
2022/11/11 08:27:14;;;;;;;19.80;10.38;;;;;;;;;;1756957;81;21789;-59
2022/11/11 08:29:59;;;;;;;18.45;9.80;;;;;;;;;;1778639;79;21024;-60
2022/11/11 08:32:44;;;;;;;17.85;9.30;;;;;;;;;;1771791;81;21087;-59
2022/11/11 08:35:29;;;;;;;17.87;9.70;;;;;;;;;;1770702;79;21539;-59
2022/11/11 08:38:14;;;;;;;18.23;9.48;;;;;;;;;;1768222;79;21024;-59
2022/11/11 08:40:59;;;;;;;22.25;10.25;;;;;;;;;;1768059;79;21039;-59
2022/11/11 08:43:43;;;;;;;17.32;9.38;;;;;;;;;;1773482;81;21004;-59
2022/11/11 08:46:28;;;;;;;16.97;9.13;;;;;;;;;;1761089;81;21051;-59
2022/11/11 08:49:13;;;;;;;15.65;9.35;;;;;;;;;;1768752;79;21507;-59
2022/11/11 08:51:57;;;;;;;20.32;10.00;;;;;;;;;;1766947;81;21016;-59
2022/11/11 08:54:42;;;;;;;20.82;9.88;;;;;;;;;;1763810;79;21051;-59
2022/11/11 08:57:27;;;;;;;18.62;10.30;;;;;;;;;;1754727;81;21590;-58
2022/11/11 09:00:12;;;;;;;16.73;9.45;;;;;;;;;;1762659;81;21032;-58
2022/11/11 09:02:59;;;;;;;19.50;10.75;;;;;;;;;;1770337;81;20996;-58
2022/11/11 09:05:46;;;;;;;20.77;11.70;;;;;;;;;;1767525;79;21087;-59
2022/11/11 09:08:31;;;;;;;19.40;11.33;;;;;;;;;;1755671;81;21063;-57
2022/11/11 09:11:17;;;;;;;16.65;9.75;;;;;;;;;;1762833;81;21546;-59
2022/11/11 09:14:02;;;;;;;16.62;9.43;;;;;;;;;;1755462;81;21011;-59
2022/11/11 09:16:48;;;;;;;17.50;9.50;;;;;;;;;;1759015;79;21119;-59
2022/11/11 09:19:33;;;;;;;15.80;9.80;;;;;;;;;;1774872;81;21067;-57
2022/11/11 09:22:18;;;;;;;18.65;10.35;;;;;;;;;;1776373;79;21028;-57
2022/11/11 09:25:04;;;;;;;17.75;10.85;;;;;;;;;;1766931;79;21063;-57
2022/11/11 09:27:56;;;;;;;18.02;9.83;;;;;;;;;;1778073;79;21534;-57
2022/11/11 09:30:41;;;;;;;17.15;9.98;;;;;;;;;;1760664;81;21051;-58
2022/11/11 09:33:26;;;;;;;15.48;9.23;;;;;;;;;;1763421;79;21043;-58
2022/11/11 09:36:10;;;;;;;16.93;9.78;;;;;;;;;;1760326;81;21515;-58
2022/11/11 09:38:55;;;;;;;17.60;10.68;;;;;;;;;;1775866;79;21550;-58
2022/11/11 09:41:41;;;;;;;20.35;9.63;;;;;;;;;;1752317;81;21514;-58
2022/11/11 09:44:30;;;;;;;16.50;9.35;;;;;;;;;;1769077;81;21507;-58
2022/11/11 09:47:17;;;;;;;17.80;8.93;;;;;;;;;;1777580;79;21059;-58
2022/11/11 09:50:22;;;;;;;17.57;10.60;;;;;;;;;;1756709;81;21051;-58
2022/11/11 09:53:09;;;;;;;15.80;9.38;;;;;;;;;;1767383;81;21016;-58
2022/11/11 09:55:56;;;;;;;16.82;9.08;;;;;;;;;;1772191;80;21028;-58
2022/11/11 09:58:51;;;;;;;15.83;8.48;;;;;;;;;;1768598;79;21548;-58
2022/11/11 10:01:38;;;;;;;16.30;9.60;;;;;;;;;;1770248;81;21095;-58
2022/11/11 10:04:30;;;;;;;18.82;10.18;;;;;;;;;;1756933;79;21039;-58
2022/11/11 10:07:21;;;;;;;17.57;9.68;;;;;;;;;;1761929;81;21031;-58
2022/11/11 10:10:08;;;;;;;16.45;9.48;;;;;;;;;;1758229;81;21103;-60
2022/11/11 10:12:54;;;;;;;15.63;8.18;;;;;;;;;;1765269;81;21040;-58
2022/11/11 10:15:56;;;;;;;20.90;10.85;;;;;;;;;;1751000;81;21110;-61
2022/11/11 10:18:45;;;;;;;15.13;8.88;;;;;;;;;;1758928;81;21039;-58
2022/11/11 10:21:32;;;;;;;19.40;10.80;;;;;;;;;;1764734;81;20999;-58
2022/11/11 10:24:18;;;;;;;15.28;8.40;;;;;;;;;;1776709;80;21039;-59
2022/11/11 10:27:06;;;;;;;15.80;8.45;;;;;;;;;;1756994;81;21511;-60
2022/11/11 10:29:51;;;;;;;14.43;7.78;;;;;;;;;;1755379;81;21100;-59
2022/11/11 10:32:37;;;;;;;13.80;8.18;;;;;;;;;;1756475;81;21072;-58
2022/11/11 10:35:22;;;;;;;14.07;8.23;;;;;;;;;;1771163;79;20993;-58
2022/11/11 10:38:09;;;;;;;29.70;26.65;;;;;;;;;;1756189;79;21036;-59
2022/11/11 10:40:54;;;;;;;51.28;46.28;;;;;;;;;;1746799;81;21020;-58
2022/11/11 10:43:39;;;;;;;18.95;16.95;;;;;;;;;;1752190;81;21051;-58
2022/11/11 10:46:26;;;;;;;65.15;59.50;;;;;;;;;;1744070;80;21047;-58
2022/11/11 10:49:12;;;;;;;21.60;18.10;;;;;;;;;;1765041;79;21027;-58
2022/11/11 10:52:11;;;;;;;18.07;13.45;;;;;;;;;;1769110;79;21028;-58
2022/11/11 10:57:52;;;;;;;20.90;18.70;;;;;;;;;;1701064;79;21164;-57
2022/11/11 11:00:37;;;;;;;13.00;8.70;;;;;;;;;;1716390;82;20987;-57
2022/11/11 11:03:23;;;;;;;14.28;8.10;;;;;;;;;;1730185;81;21736;-58
2022/11/11 11:06:13;;;;;;;12.98;8.18;;;;;;;;;;1729915;81;21076;-59
2022/11/11 11:09:19;;;;;;;11.20;7.20;;;;;;;;;;1711866;82;21609;-57
2022/11/11 11:12:06;;;;;;;11.57;7.20;;;;;;;;;;1717237;81;21037;-57
2022/11/11 11:14:53;;;;;;;11.57;6.97;;;;;;;;;;1731030;82;21080;-57
2022/11/11 11:32:28;;;;;;;10.63;8.13;;;;;;;;;;1796090;78;28037;-58
2022/11/11 11:35:32;;;;;;;11.50;7.35;;;;;;;;;;1762254;80;22023;-58
2022/11/11 11:38:17;;;;;;;12.10;7.20;;;;;;;;;;1750403;81;21042;-58
2022/11/11 11:41:02;;;;;;;12.75;7.35;;;;;;;;;;1760643;81;21032;-58
2022/11/11 11:43:47;;;;;;;11.73;6.37;;;;;;;;;;1758348;80;21545;-59
2022/11/11 11:46:43;;;;;;;12.95;7.55;;;;;;;;;;1767356;80;21606;-58
2022/11/11 11:49:46;;;;;;;11.33;7.40;;;;;;;;;;1769355;80;21040;-59
2022/11/11 11:52:42;;;;;;;13.88;6.83;;;;;;;;;;1761322;80;21071;-59
2022/11/11 11:55:39;;;;;;;13.90;6.70;;;;;;;;;;1765835;80;21031;-58
2022/11/11 12:10:39;;;;;;;9.83;6.87;;;;;;;;;;1890918;76;27999;-67
2022/11/11 12:13:25;;;;;;;11.22;6.62;;;;;;;;;;1834732;77;20980;-67
2022/11/11 12:16:26;;;;;;;11.93;6.40;;;;;;;;;;1832217;77;21006;-68
2022/11/11 12:19:30;;;;;;;12.95;7.10;;;;;;;;;;1828611;77;21030;-67
2022/11/11 12:22:26;;;;;;;12.98;7.03;;;;;;;;;;1828844;77;21538;-68
2022/11/11 12:25:12;;;;;;;11.63;6.97;;;;;;;;;;1854655;77;20980;-69
2022/11/11 12:28:16;;;;;;;11.50;7.75;;;;;;;;;;1831090;77;21052;-69
2022/11/11 12:31:01;;;;;;;;;;;;;;;;;;1834107;77;21004;-69
2022/11/11 12:33:54;;;;;;;10.72;6.55;;;;;;;;;;1836645;77;20136;-68
2022/11/11 12:36:44;;;;;;;12.33;7.37;;;;;;;;;;1833711;77;21012;-67
2022/11/11 12:39:42;;;;;;;11.78;7.37;;;;;;;;;;1836277;77;21008;-66
2022/11/11 12:42:46;;;;;;;11.12;6.85;;;;;;;;;;1848598;77;21479;-67
2022/11/11 12:45:48;;;;;;;13.70;6.60;;;;;;;;;;1842288;77;21000;-66
2022/11/11 12:48:47;;;;;;;11.65;6.53;;;;;;;;;;1854866;76;21000;-67
2022/11/11 12:51:37;;;;;;;8.58;4.90;;;;;;;;;;1839770;77;21005;-66
2022/11/11 12:54:24;;;;;;;8.18;5.00;;;;;;;;;;1841323;76;21074;-68
2022/11/11 12:57:11;;;;;;;8.83;5.00;;;;;;;;;;1839893;77;21015;-67
2022/11/11 13:00:06;;;;;;;6.42;4.10;;;;;;;;;;1823443;77;21616;-67
2022/11/11 13:02:55;;;;;;;7.20;4.12;;;;;;;;;;1852764;76;20977;-66
2022/11/11 13:05:42;;;;;;;8.30;4.72;;;;;;;;;;1854634;77;21011;-67
2022/11/11 13:08:46;;;;;;;8.30;4.62;;;;;;;;;;1841230;77;20986;-67
2022/11/11 13:11:33;;;;;;;6.92;4.65;;;;;;;;;;1855088;76;20972;-66
2022/11/11 13:14:33;;;;;;;9.40;5.62;;;;;;;;;;1851755;77;21449;-67
2022/11/11 13:17:18;;;;;;;8.98;4.87;;;;;;;;;;1854355;77;21058;-67
2022/11/11 13:20:07;;;;;;;9.30;5.20;;;;;;;;;;1847976;77;21012;-66
2022/11/11 13:22:54;;;;;;;8.78;5.03;;;;;;;;;;1851574;77;21570;-69
2022/11/11 13:25:40;;;;;;;8.50;5.30;;;;;;;;;;1853418;76;20964;-66
2022/11/11 13:28:27;;;;;;;10.40;5.40;;;;;;;;;;1843381;76;21694;-68
2022/11/11 13:31:23;;;;;;;7.72;4.95;;;;;;;;;;1840318;76;21016;-68
2022/11/11 13:34:11;;;;;;;8.85;5.53;;;;;;;;;;1837362;76;21024;-67
2022/11/11 13:36:56;;;;;;;9.73;5.40;;;;;;;;;;1832125;77;21546;-71
2022/11/11 13:39:45;;;;;;;10.35;5.17;;;;;;;;;;1840653;77;20998;-68
2022/11/11 13:42:31;;;;;;;10.35;5.92;;;;;;;;;;1851135;76;21029;-67
2022/11/11 13:45:27;;;;;;;8.75;5.03;;;;;;;;;;1843966;76;21049;-66
2022/11/11 13:48:16;;;;;;;9.95;5.75;;;;;;;;;;1858988;77;21012;-67
2022/11/11 13:51:12;;;;;;;7.53;4.70;;;;;;;;;;1838203;77;21546;-65
2022/11/11 13:53:59;;;;;;;8.93;5.17;;;;;;;;;;1852508;77;21088;-65
2022/11/11 13:56:43;;;;;;;9.10;5.10;;;;;;;;;;1849793;77;20984;-67
2022/11/11 13:59:29;;;;;;;8.13;5.17;;;;;;;;;;1852209;77;21071;-67
2022/11/11 14:02:15;;;;;;;10.45;5.42;;;;;;;;;;1847640;77;21027;-67
2022/11/11 14:05:05;;;;;;;8.03;4.90;;;;;;;;;;1851651;76;21032;-68
2022/11/11 14:07:52;;;;;;;8.93;5.08;;;;;;;;;;1836013;76;21020;-67
2022/11/11 14:10:39;;;;;;;9.28;5.72;;;;;;;;;;1844604;76;21051;-68
2022/11/11 14:13:33;;;;;;;8.38;5.25;;;;;;;;;;1845579;76;21204;-67
2022/11/11 14:16:17;;;;;;;10.23;5.22;;;;;;;;;;1842918;76;20992;-67
2022/11/11 14:19:16;;;;;;;9.35;4.67;;;;;;;;;;1822055;76;21276;-68
2022/11/11 14:22:00;;;;;;;7.50;4.67;;;;;;;;;;1841415;76;21036;-68
2022/11/11 14:24:46;;;;;;;9.40;4.90;;;;;;;;;;1844280;76;21058;-67
2022/11/11 14:27:31;;;;;;;8.38;5.35;;;;;;;;;;1844821;77;21028;-67
2022/11/11 14:30:32;;;;;;;9.95;5.62;;;;;;;;;;1845000;77;20985;-67
2022/11/11 14:33:27;;;;;;;9.95;5.60;;;;;;;;;;1852858;76;20995;-68
2022/11/11 14:36:20;;;;;;;9.55;5.20;;;;;;;;;;1845977;77;21015;-68
2022/11/11 14:39:13;;;;;;;9.45;5.50;;;;;;;;;;1850908;77;21074;-69
2022/11/11 14:41:58;;;;;;;10.78;5.70;;;;;;;;;;1842050;77;21048;-66
2022/11/11 14:44:42;;;;;;;6.65;5.10;;;;;;;;;;1843035;76;21055;-69
2022/11/11 14:47:31;;;;;;;9.78;5.80;;;;;;;;;;1845746;77;21063;-68
2022/11/11 15:01:52;;;;;;;9.80;6.65;;;;;;;;;;1820179;79;27995;-58
2022/11/11 15:04:37;;;;;;;13.35;6.50;;;;;;;;;;1808024;78;21508;-59
2022/11/11 15:07:31;;;;;;;8.60;6.15;;;;;;;;;;1819387;78;21014;-59
2022/11/11 15:10:17;;;;;;;10.03;6.33;;;;;;;;;;1813483;78;21014;-59
2022/11/11 15:13:04;;;;;;;10.40;6.58;;;;;;;;;;1813008;78;20996;-58
2022/11/11 15:16:09;;;;;;;11.65;7.42;;;;;;;;;;1784177;80;20992;-58
2022/11/11 15:19:03;;;;;;;10.38;6.65;;;;;;;;;;1761947;80;21067;-56
2022/11/11 15:22:01;;;;;;;13.95;8.18;;;;;;;;;;1769621;79;21019;-57
2022/11/11 15:24:54;;;;;;;15.98;9.88;;;;;;;;;;1765573;80;21059;-57
2022/11/11 15:33:18;;;;;;;135.72;76.35;;;;;;;;;;1757174;78;21309;-58
2022/11/11 15:36:11;;;;;;;19.80;13.48;;;;;;;;;;1748938;81;21052;-58
2022/11/11 15:38:56;;;;;;;20.65;11.45;;;;;;;;;;1761427;80;21046;-58
2022/11/11 15:41:41;;;;;;;15.63;9.33;;;;;;;;;;1759347;80;21087;-58
2022/11/11 15:44:28;;;;;;;17.12;9.85;;;;;;;;;;1768030;80;21067;-57
2022/11/11 15:47:14;;;;;;;17.12;9.25;;;;;;;;;;1769017;80;21487;-59
2022/11/11 15:49:59;;;;;;;17.73;9.25;;;;;;;;;;1768795;80;21051;-58
2022/11/11 15:52:44;;;;;;;12.73;8.10;;;;;;;;;;1767337;80;21499;-57
2022/11/11 15:55:34;;;;;;;11.68;7.47;;;;;;;;;;1769999;80;21043;-58
2022/11/11 15:58:28;;;;;;;12.30;7.58;;;;;;;;;;1771712;80;21059;-58
2022/11/11 16:01:13;;;;;;;10.70;6.53;;;;;;;;;;1768099;80;21016;-58
2022/11/11 16:03:58;;;;;;;14.20;7.90;;;;;;;;;;1764221;80;21019;-59
2022/11/11 16:06:43;;;;;;;13.30;7.97;;;;;;;;;;1764606;80;21031;-59
2022/11/11 16:09:29;;;;;;;14.95;8.75;;;;;;;;;;1758172;80;21037;-58
2022/11/11 16:12:15;;;;;;;17.05;9.28;;;;;;;;;;1768241;80;21483;-58
2022/11/11 16:15:00;;;;;;;21.95;11.18;;;;;;;;;;1771989;80;21016;-57
2022/11/11 16:17:45;;;;;;;29.18;12.93;;;;;;;;;;1771622;80;21043;-57
2022/11/11 16:20:34;;;;;;;26.85;14.70;;;;;;;;;;1754587;80;21005;-59
2022/11/11 16:23:19;;;;;;;30.80;16.93;;;;;;;;;;1764332;80;21001;-57
2022/11/11 16:26:03;;;;;;;31.37;17.95;;;;;;;;;;1760257;80;21028;-57
2022/11/11 16:28:50;;;;;;;31.33;17.30;;;;;;;;;;1769664;80;21017;-57
2022/11/11 16:31:37;;;;;;;26.27;14.63;;;;;;;;;;1753254;80;21039;-58
2022/11/11 16:34:24;;;;;;;28.90;15.13;;;;;;;;;;1746875;80;21550;-58
2022/11/11 16:37:10;;;;;;;30.27;18.52;;;;;;;;;;1747936;81;21016;-57
2022/11/11 16:39:54;;;;;;;24.45;15.05;;;;;;;;;;1738349;80;21696;-58
2022/11/11 16:42:39;;;;;;;25.50;14.40;;;;;;;;;;1751090;80;21040;-59
2022/11/11 16:45:24;;;;;;;23.77;15.40;;;;;;;;;;1745851;80;21023;-58
2022/11/11 16:48:28;;;;;;;25.62;13.83;;;;;;;;;;1746080;80;21042;-59
2022/11/11 16:51:31;;;;;;;23.60;13.08;;;;;;;;;;1681483;84;21522;-60
2022/11/11 16:54:17;;;;;;;16.82;10.53;;;;;;;;;;1681984;84;21076;-59
2022/11/11 16:57:02;;;;;;;23.38;12.98;;;;;;;;;;1730628;80;21554;-59
2022/11/11 16:59:48;;;;;;;21.05;13.10;;;;;;;;;;1742435;80;21032;-57
2022/11/11 17:02:34;;;;;;;27.98;14.35;;;;;;;;;;1740572;80;21019;-59
2022/11/11 17:05:21;;;;;;;23.20;13.10;;;;;;;;;;1740937;80;21055;-59
2022/11/11 17:08:25;;;;;;;24.15;14.40;;;;;;;;;;1744951;80;21000;-58
2022/11/11 17:11:10;;;;;;;23.10;12.63;;;;;;;;;;1670478;84;21134;-58
2022/11/11 17:13:54;;;;;;;20.85;12.15;;;;;;;;;;1673619;84;22247;-59
2022/11/11 17:16:39;;;;;;;21.15;11.22;;;;;;;;;;1721346;80;21062;-58
2022/11/11 17:19:24;;;;;;;20.05;11.68;;;;;;;;;;1745690;80;21015;-59
2022/11/11 17:22:09;;;;;;;21.25;12.37;;;;;;;;;;1742544;80;21511;-60
2022/11/11 17:24:54;;;;;;;30.15;13.83;;;;;;;;;;1747637;80;21199;-59
2022/11/11 17:27:38;;;;;;;21.30;11.90;;;;;;;;;;1748716;80;21070;-58
2022/11/11 17:30:24;;;;;;;24.75;11.50;;;;;;;;;;1748934;80;21016;-59
2022/11/11 17:33:09;;;;;;;24.43;12.13;;;;;;;;;;1746231;80;21540;-59
2022/11/11 17:35:56;;;;;;;23.57;12.70;;;;;;;;;;1741654;81;21627;-58
2022/11/11 17:38:41;;;;;;;24.02;12.13;;;;;;;;;;1735859;80;21098;-59
2022/11/11 17:41:26;;;;;;;20.00;11.63;;;;;;;;;;1737971;81;21071;-57
2022/11/11 17:44:10;;;;;;;20.05;12.28;;;;;;;;;;1734008;81;21040;-60
2022/11/11 17:46:55;;;;;;;22.62;14.20;;;;;;;;;;1738857;81;21184;-58
2022/11/11 17:49:39;;;;;;;26.25;14.10;;;;;;;;;;1734556;81;21530;-57
2022/11/11 17:52:24;;;;;;;27.40;16.40;;;;;;;;;;1735721;81;21059;-58
2022/11/11 17:55:08;;;;;;;22.27;13.45;;;;;;;;;;1735659;81;21031;-58
2022/11/11 17:57:53;;;;;;;26.42;14.40;;;;;;;;;;1738066;81;21039;-58
2022/11/11 18:00:40;;;;;;;28.15;16.00;;;;;;;;;;1721819;82;21647;-59
2022/11/11 18:03:26;;;;;;;27.55;15.05;;;;;;;;;;1723207;82;21050;-59
2022/11/11 18:08:57;;;;;;;31.57;17.23;;;;;;;;;;1675472;84;21627;-58
2022/11/11 18:11:43;;;;;;;37.13;20.90;;;;;;;;;;1727495;82;21065;-58
2022/11/11 18:25:42;;;;;;;31.73;19.10;;;;;;;;;;1760282;79;28165;-60
2022/11/11 18:28:30;;;;;;;30.23;18.82;;;;;;;;;;1741867;81;21631;-60
2022/11/11 18:31:14;;;;;;;33.92;19.95;;;;;;;;;;1722368;82;21239;-59
2022/11/11 18:33:58;;;;;;;37.90;20.70;;;;;;;;;;1735499;81;21090;-59
2022/11/11 18:36:43;;;;;;;43.73;22.70;;;;;;;;;;1716731;82;21054;-59
2022/11/11 18:39:27;;;;;;;50.00;27.05;;;;;;;;;;1713499;82;21003;-60
2022/11/11 18:42:12;;;;;;;72.50;28.07;;;;;;;;;;1736152;82;22213;-59
2022/11/11 18:44:57;;;;;;;48.85;24.65;;;;;;;;;;1741112;82;21523;-60
2022/11/11 18:47:41;;;;;;;47.17;24.37;;;;;;;;;;1709811;82;21035;-59
2022/11/11 18:50:27;;;;;;;34.65;18.67;;;;;;;;;;1725106;82;21010;-60
2022/11/11 18:53:12;;;;;;;36.55;20.95;;;;;;;;;;1736581;81;21044;-59